sensor_id;sensor_type;location;lat;lon;timestamp;pressure;altitude;pressure_sealevel;temperature;humidity
78894;BME280;68282;42.698;23.350;2023-05-21T00:02:15;95304.25;;;16.64;66.74
78894;BME280;68282;42.698;23.350;2023-05-21T00:04:45;95316.06;;;16.69;66.63
78894;BME280;68282;42.698;23.350;2023-05-21T00:07:11;95322.34;;;16.70;66.65
78894;BME280;68282;42.698;23.350;2023-05-21T00:09:37;95322.34;;;16.65;67.12
78894;BME280;68282;42.698;23.350;2023-05-21T00:12:04;95321.81;;;16.68;67.32
78894;BME280;68282;42.698;23.350;2023-05-21T00:14:30;95316.06;;;16.69;67.09
78894;BME280;68282;42.698;23.350;2023-05-21T00:16:55;95305.88;;;16.65;67.54
78894;BME280;68282;42.698;23.350;2023-05-21T00:19:20;95300.69;;;16.68;67.40
78894;BME280;68282;42.698;23.350;2023-05-21T00:21:46;95308.38;;;16.66;67.43
78894;BME280;68282;42.698;23.350;2023-05-21T00:24:11;95311.66;;;16.68;67.57
78894;BME280;68282;42.698;23.350;2023-05-21T00:26:37;95307.28;;;16.67;67.24
78894;BME280;68282;42.698;23.350;2023-05-21T00:29:02;95306.44;;;16.67;67.25
78894;BME280;68282;42.698;23.350;2023-05-21T00:31:28;95303.69;;;16.67;67.04
78894;BME280;68282;42.698;23.350;2023-05-21T00:33:56;95307.25;;;16.62;66.52
78894;BME280;68282;42.698;23.350;2023-05-21T00:36:22;95296.28;;;16.62;66.83
78894;BME280;68282;42.698;23.350;2023-05-21T00:38:49;95294.38;;;16.58;66.77
78894;BME280;68282;42.698;23.350;2023-05-21T00:41:15;95297.97;;;16.58;66.76
78894;BME280;68282;42.698;23.350;2023-05-21T00:43:41;95297.41;;;16.56;66.52
78894;BME280;68282;42.698;23.350;2023-05-21T00:46:19;95296.84;;;16.54;66.55
78894;BME280;68282;42.698;23.350;2023-05-21T00:48:46;95296.59;;;16.50;66.46
78894;BME280;68282;42.698;23.350;2023-05-21T00:51:13;95294.38;;;16.47;66.37
78894;BME280;68282;42.698;23.350;2023-05-21T00:53:39;95298.25;;;16.41;66.49
78894;BME280;68282;42.698;23.350;2023-05-21T00:56:05;95305.41;;;16.42;66.59
78894;BME280;68282;42.698;23.350;2023-05-21T00:58:31;95299.34;;;16.40;66.65
78894;BME280;68282;42.698;23.350;2023-05-21T01:00:58;95296.88;;;16.38;66.63
78894;BME280;68282;42.698;23.350;2023-05-21T01:03:28;95296.59;;;16.35;66.79
78894;BME280;68282;42.698;23.350;2023-05-21T01:05:54;95294.13;;;16.33;67.03
78894;BME280;68282;42.698;23.350;2023-05-21T01:08:24;95293.88;;;16.30;67.04
78894;BME280;68282;42.698;23.350;2023-05-21T01:10:53;95287.84;;;16.28;66.94
78894;BME280;68282;42.698;23.350;2023-05-21T01:13:20;95296.06;;;16.28;66.88
78894;BME280;68282;42.698;23.350;2023-05-21T01:15:48;95300.47;;;16.29;67.06
78894;BME280;68282;42.698;23.350;2023-05-21T01:18:14;95292.22;;;16.29;66.92
78894;BME280;68282;42.698;23.350;2023-05-21T01:20:40;95287.84;;;16.28;66.73
78894;BME280;68282;42.698;23.350;2023-05-21T01:23:07;95282.59;;;16.26;66.84
78894;BME280;68282;42.698;23.350;2023-05-21T01:25:33;95285.63;;;16.25;66.95
78894;BME280;68282;42.698;23.350;2023-05-21T01:27:59;95279.59;;;16.22;66.64
78894;BME280;68282;42.698;23.350;2023-05-21T01:30:24;95277.66;;;16.18;66.79
78894;BME280;68282;42.698;23.350;2023-05-21T01:33:01;95270.84;;;16.20;66.85
78894;BME280;68282;42.698;23.350;2023-05-21T01:35:44;95273.28;;;16.22;66.50
78894;BME280;68282;42.698;23.350;2023-05-21T01:38:21;95276.03;;;16.22;66.20
78894;BME280;68282;42.698;23.350;2023-05-21T01:41:02;95273.84;;;16.14;66.55
78894;BME280;68282;42.698;23.350;2023-05-21T01:43:32;95271.09;;;16.14;66.91
78894;BME280;68282;42.698;23.350;2023-05-21T01:45:59;95275.19;;;16.11;67.07
78894;BME280;68282;42.698;23.350;2023-05-21T01:48:27;95279.59;;;16.12;66.92
78894;BME280;68282;42.698;23.350;2023-05-21T01:50:54;95272.75;;;16.10;67.21
78894;BME280;68282;42.698;23.350;2023-05-21T01:53:22;95275.78;;;16.08;67.43
78894;BME280;68282;42.698;23.350;2023-05-21T01:55:47;95274.66;;;16.14;67.15
78894;BME280;68282;42.698;23.350;2023-05-21T01:58:13;95273.84;;;16.14;67.19
78894;BME280;68282;42.698;23.350;2023-05-21T02:00:40;95266.97;;;16.16;67.04
78894;BME280;68282;42.698;23.350;2023-05-21T02:03:06;95263.69;;;16.14;67.26
78894;BME280;68282;42.698;23.350;2023-05-21T02:05:32;95269.72;;;16.11;67.12
78894;BME280;68282;42.698;23.350;2023-05-21T02:07:57;95265.34;;;16.15;67.50
78894;BME280;68282;42.698;23.350;2023-05-21T02:10:27;95261.50;;;16.16;66.92
78894;BME280;68282;42.698;23.350;2023-05-21T02:12:54;95261.50;;;16.16;66.89
78894;BME280;68282;42.698;23.350;2023-05-21T02:15:19;95261.22;;;16.13;67.21
78894;BME280;68282;42.698;23.350;2023-05-21T02:17:45;95262.59;;;16.10;67.21
78894;BME280;68282;42.698;23.350;2023-05-21T02:20:11;95265.06;;;16.12;67.02
78894;BME280;68282;42.698;23.350;2023-05-21T02:22:43;95262.59;;;16.10;66.80
78894;BME280;68282;42.698;23.350;2023-05-21T02:25:10;95267.53;;;16.13;66.66
78894;BME280;68282;42.698;23.350;2023-05-21T02:27:36;95275.47;;;16.04;66.60
78894;BME280;68282;42.698;23.350;2023-05-21T02:30:06;95259.84;;;16.00;66.76
78894;BME280;68282;42.698;23.350;2023-05-21T02:32:32;95267.81;;;16.01;66.87
78894;BME280;68282;42.698;23.350;2023-05-21T02:34:58;95255.44;;;15.99;66.55
78894;BME280;68282;42.698;23.350;2023-05-21T02:37:26;95263.44;;;16.00;66.71
78894;BME280;68282;42.698;23.350;2023-05-21T02:39:53;95259.84;;;15.95;66.32
78894;BME280;68282;42.698;23.350;2023-05-21T02:42:19;95260.94;;;15.99;66.62
78894;BME280;68282;42.698;23.350;2023-05-21T02:44:44;95260.13;;;15.98;66.70
78894;BME280;68282;42.698;23.350;2023-05-21T02:47:09;95249.16;;;15.98;66.50
78894;BME280;68282;42.698;23.350;2023-05-21T02:49:36;95246.41;;;15.98;66.39
78894;BME280;68282;42.698;23.350;2023-05-21T02:52:02;95246.41;;;15.93;66.66
78894;BME280;68282;42.698;23.350;2023-05-21T02:54:27;95251.34;;;15.96;66.58
78894;BME280;68282;42.698;23.350;2023-05-21T02:56:52;95244.78;;;15.92;66.53
78894;BME280;68282;42.698;23.350;2023-05-21T02:59:18;95241.75;;;15.94;66.55
78894;BME280;68282;42.698;23.350;2023-05-21T03:01:44;95242.59;;;15.89;66.72
78894;BME280;68282;42.698;23.350;2023-05-21T03:04:09;95248.63;;;15.91;66.92
78894;BME280;68282;42.698;23.350;2023-05-21T03:06:35;95240.38;;;15.91;66.50
78894;BME280;68282;42.698;23.350;2023-05-21T03:09:02;95250.25;;;15.87;66.87
78894;BME280;68282;42.698;23.350;2023-05-21T03:11:27;95253.50;;;15.84;66.82
78894;BME280;68282;42.698;23.350;2023-05-21T03:13:52;95246.09;;;15.79;67.06
78894;BME280;68282;42.698;23.350;2023-05-21T03:16:18;95260.09;;;15.83;67.07
78894;BME280;68282;42.698;23.350;2023-05-21T03:18:43;95255.97;;;15.80;67.33
78894;BME280;68282;42.698;23.350;2023-05-21T03:21:09;95258.16;;;15.78;67.36
78894;BME280;68282;42.698;23.350;2023-05-21T03:23:37;95258.72;;;15.80;67.57
78894;BME280;68282;42.698;23.350;2023-05-21T03:26:03;95262.00;;;15.82;67.42
78894;BME280;68282;42.698;23.350;2023-05-21T03:28:28;95262.00;;;15.82;67.33
78894;BME280;68282;42.698;23.350;2023-05-21T03:30:54;95262.59;;;15.84;67.56
78894;BME280;68282;42.698;23.350;2023-05-21T03:33:20;95264.25;;;15.85;67.54
78894;BME280;68282;42.698;23.350;2023-05-21T03:35:46;95267.00;;;15.85;67.84
78894;BME280;68282;42.698;23.350;2023-05-21T03:38:11;95269.97;;;15.84;67.78
78894;BME280;68282;42.698;23.350;2023-05-21T03:40:37;95267.56;;;15.87;67.79
78894;BME280;68282;42.698;23.350;2023-05-21T03:43:02;95267.22;;;15.84;67.73
78894;BME280;68282;42.698;23.350;2023-05-21T03:45:27;95259.56;;;15.86;67.81
78894;BME280;68282;42.698;23.350;2023-05-21T03:47:53;95257.09;;;15.89;67.82
78894;BME280;68282;42.698;23.350;2023-05-21T03:50:18;95266.72;;;15.92;67.44
78894;BME280;68282;42.698;23.350;2023-05-21T03:52:43;95263.69;;;15.94;67.18
78894;BME280;68282;42.698;23.350;2023-05-21T03:55:09;95264.78;;;15.92;67.36
78894;BME280;68282;42.698;23.350;2023-05-21T03:57:34;95260.13;;;15.93;67.05
78894;BME280;68282;42.698;23.350;2023-05-21T04:00:00;95256.28;;;15.94;67.26
78894;BME280;68282;42.698;23.350;2023-05-21T04:02:26;95244.78;;;15.92;67.03
78894;BME280;68282;42.698;23.350;2023-05-21T04:04:52;95255.44;;;15.99;66.89
78894;BME280;68282;42.698;23.350;2023-05-21T04:07:20;95253.53;;;15.94;67.18
78894;BME280;68282;42.698;23.350;2023-05-21T04:09:46;95261.22;;;15.97;66.82
78894;BME280;68282;42.698;23.350;2023-05-21T04:12:12;95262.34;;;16.01;66.89
78894;BME280;68282;42.698;23.350;2023-05-21T04:14:37;95262.59;;;16.00;67.03
78894;BME280;68282;42.698;23.350;2023-05-21T04:17:03;95255.19;;;16.05;66.93
78894;BME280;68282;42.698;23.350;2023-05-21T04:19:32;95253.28;;;16.06;66.76
78894;BME280;68282;42.698;23.350;2023-05-21T04:21:58;95256.56;;;16.08;67.28
78894;BME280;68282;42.698;23.350;2023-05-21T04:24:23;95255.47;;;16.04;67.54
78894;BME280;68282;42.698;23.350;2023-05-21T04:26:49;95255.19;;;16.11;67.69
78894;BME280;68282;42.698;23.350;2023-05-21T04:29:15;95254.34;;;16.10;66.81
78894;BME280;68282;42.698;23.350;2023-05-21T04:31:48;95256.84;;;16.12;66.49
78894;BME280;68282;42.698;23.350;2023-05-21T04:34:14;95259.56;;;16.22;66.89
78894;BME280;68282;42.698;23.350;2023-05-21T04:36:44;95254.88;;;16.22;66.78
78894;BME280;68282;42.698;23.350;2023-05-21T04:39:13;95256.00;;;16.27;66.78
78894;BME280;68282;42.698;23.350;2023-05-21T04:41:38;95254.34;;;16.31;66.61
78894;BME280;68282;42.698;23.350;2023-05-21T04:44:06;95262.28;;;16.27;66.60
78894;BME280;68282;42.698;23.350;2023-05-21T04:46:31;95264.22;;;16.32;66.40
78894;BME280;68282;42.698;23.350;2023-05-21T04:48:59;95261.19;;;16.33;66.20
78894;BME280;68282;42.698;23.350;2023-05-21T04:51:27;95266.66;;;16.38;66.52
78894;BME280;68282;42.698;23.350;2023-05-21T04:53:52;95261.72;;;16.41;66.93
78894;BME280;68282;42.698;23.350;2023-05-21T04:56:18;95263.63;;;16.45;66.89
78894;BME280;68282;42.698;23.350;2023-05-21T04:58:44;95257.91;;;16.47;66.15
78894;BME280;68282;42.698;23.350;2023-05-21T05:01:10;95259.81;;;16.51;66.17
78894;BME280;68282;42.698;23.350;2023-05-21T05:03:37;95267.47;;;16.54;66.10
78894;BME280;68282;42.698;23.350;2023-05-21T05:06:02;95263.06;;;16.59;66.63
78894;BME280;68282;42.698;23.350;2023-05-21T05:08:29;95271.00;;;16.60;64.88
78894;BME280;68282;42.698;23.350;2023-05-21T05:10:54;95257.03;;;16.62;63.88
78894;BME280;68282;42.698;23.350;2023-05-21T05:13:20;95258.69;;;16.58;63.61
78894;BME280;68282;42.698;23.350;2023-05-21T05:15:45;95260.06;;;16.55;64.20
78894;BME280;68282;42.698;23.350;2023-05-21T05:18:11;95264.72;;;16.60;64.05
78894;BME280;68282;42.698;23.350;2023-05-21T05:20:37;95264.72;;;16.60;63.31
78894;BME280;68282;42.698;23.350;2023-05-21T05:23:02;95258.13;;;16.56;63.73
78894;BME280;68282;42.698;23.350;2023-05-21T05:25:28;95270.50;;;16.53;64.54
78894;BME280;68282;42.698;23.350;2023-05-21T05:27:53;95263.91;;;16.49;63.39
78894;BME280;68282;42.698;23.350;2023-05-21T05:30:19;95259.00;;;16.46;63.45
78894;BME280;68282;42.698;23.350;2023-05-21T05:32:45;95258.16;;;16.45;63.93
78894;BME280;68282;42.698;23.350;2023-05-21T05:35:11;95255.66;;;16.49;63.97
78894;BME280;68282;42.698;23.350;2023-05-21T05:37:36;95264.19;;;16.47;63.89
78894;BME280;68282;42.698;23.350;2023-05-21T05:40:02;95254.03;;;16.53;63.74
78894;BME280;68282;42.698;23.350;2023-05-21T05:42:29;95259.22;;;16.54;63.68
78894;BME280;68282;42.698;23.350;2023-05-21T05:44:54;95260.88;;;16.61;64.00
78894;BME280;68282;42.698;23.350;2023-05-21T05:47:20;95252.34;;;16.62;63.31
78894;BME280;68282;42.698;23.350;2023-05-21T05:49:46;95254.84;;;16.64;63.62
78894;BME280;68282;42.698;23.350;2023-05-21T05:52:11;95250.66;;;16.72;63.77
78894;BME280;68282;42.698;23.350;2023-05-21T05:54:37;95253.69;;;16.70;64.09
78894;BME280;68282;42.698;23.350;2023-05-21T05:57:02;95255.91;;;16.73;64.16
78894;BME280;68282;42.698;23.350;2023-05-21T05:59:28;95253.69;;;16.75;64.49
78894;BME280;68282;42.698;23.350;2023-05-21T06:01:53;95262.47;;;16.82;64.41
78894;BME280;68282;42.698;23.350;2023-05-21T06:04:19;95252.56;;;16.81;64.56
78894;BME280;68282;42.698;23.350;2023-05-21T06:06:44;95257.47;;;16.90;64.43
78894;BME280;68282;42.698;23.350;2023-05-21T06:09:10;95249.81;;;16.97;64.18
78894;BME280;68282;42.698;23.350;2023-05-21T06:11:36;95249.78;;;17.02;63.77
78894;BME280;68282;42.698;23.350;2023-05-21T06:14:01;95248.06;;;17.11;63.58
78894;BME280;68282;42.698;23.350;2023-05-21T06:16:27;95236.28;;;17.11;63.59
78894;BME280;68282;42.698;23.350;2023-05-21T06:18:55;95245.03;;;17.18;63.24
78894;BME280;68282;42.698;23.350;2023-05-21T06:21:21;95234.88;;;17.19;61.57
78894;BME280;68282;42.698;23.350;2023-05-21T06:23:46;95239.50;;;17.23;62.04
78894;BME280;68282;42.698;23.350;2023-05-21T06:26:11;95241.66;;;17.26;62.12
78894;BME280;68282;42.698;23.350;2023-05-21T06:28:37;95237.81;;;17.27;61.49
78894;BME280;68282;42.698;23.350;2023-05-21T06:31:02;95230.69;;;17.26;60.16
78894;BME280;68282;42.698;23.350;2023-05-21T06:33:28;95229.31;;;17.29;59.42
78894;BME280;68282;42.698;23.350;2023-05-21T06:35:53;95229.56;;;17.33;59.15
78894;BME280;68282;42.698;23.350;2023-05-21T06:38:19;95218.81;;;17.36;59.35
78894;BME280;68282;42.698;23.350;2023-05-21T06:40:44;95229.78;;;17.41;59.17
78894;BME280;68282;42.698;23.350;2023-05-21T06:43:12;95226.19;;;17.46;57.46
78894;BME280;68282;42.698;23.350;2023-05-21T06:45:38;95214.03;;;17.52;57.42
78894;BME280;68282;42.698;23.350;2023-05-21T06:48:03;95210.97;;;17.54;56.79
78894;BME280;68282;42.698;23.350;2023-05-21T06:50:29;95216.75;;;17.57;56.45
78894;BME280;68282;42.698;23.350;2023-05-21T06:52:54;95208.47;;;17.62;55.78
78894;BME280;68282;42.698;23.350;2023-05-21T06:55:20;95218.56;;;17.72;55.80
78894;BME280;68282;42.698;23.350;2023-05-21T06:57:45;95221.00;;;17.79;56.34
78894;BME280;68282;42.698;23.350;2023-05-21T07:00:11;95216.53;;;17.83;55.24
78894;BME280;68282;42.698;23.350;2023-05-21T07:02:36;95214.03;;;17.87;55.92
78894;BME280;68282;42.698;23.350;2023-05-21T07:05:02;95210.19;;;17.88;55.96
78894;BME280;68282;42.698;23.350;2023-05-21T07:07:27;95207.16;;;17.89;55.39
78894;BME280;68282;42.698;23.350;2023-05-21T07:09:53;95212.38;;;17.91;54.26
78894;BME280;68282;42.698;23.350;2023-05-21T07:12:18;95208.47;;;17.97;54.37
78894;BME280;68282;42.698;23.350;2023-05-21T07:14:44;95205.19;;;17.95;54.45
78894;BME280;68282;42.698;23.350;2023-05-21T07:17:09;95204.63;;;17.98;55.48
78894;BME280;68282;42.698;23.350;2023-05-21T07:19:34;95202.41;;;18.00;55.08
78894;BME280;68282;42.698;23.350;2023-05-21T07:22:02;95204.59;;;18.03;55.00
78894;BME280;68282;42.698;23.350;2023-05-21T07:24:27;95202.03;;;18.12;56.03
78894;BME280;68282;42.698;23.350;2023-05-21T07:26:53;95204.44;;;18.19;55.86
78894;BME280;68282;42.698;23.350;2023-05-21T07:29:18;95211.34;;;18.16;55.75
78894;BME280;68282;42.698;23.350;2023-05-21T07:31:44;95211.63;;;18.15;55.63
78894;BME280;68282;42.698;23.350;2023-05-21T07:34:09;95211.88;;;18.18;56.10
78894;BME280;68282;42.698;23.350;2023-05-21T07:36:35;95205.50;;;18.23;55.20
78894;BME280;68282;42.698;23.350;2023-05-21T07:39:01;95212.34;;;18.26;55.12
78894;BME280;68282;42.698;23.350;2023-05-21T07:41:26;95203.75;;;18.32;55.52
78894;BME280;68282;42.698;23.350;2023-05-21T07:43:52;95197.44;;;18.32;55.57
78894;BME280;68282;42.698;23.350;2023-05-21T07:46:17;95196.03;;;18.34;56.01
78894;BME280;68282;42.698;23.350;2023-05-21T07:48:43;95199.25;;;18.42;55.57
78894;BME280;68282;42.698;23.350;2023-05-21T07:51:09;95189.75;;;18.53;55.02
78894;BME280;68282;42.698;23.350;2023-05-21T07:53:34;95196.28;;;18.62;54.86
78894;BME280;68282;42.698;23.350;2023-05-21T07:56:00;95194.00;;;18.69;53.21
78894;BME280;68282;42.698;23.350;2023-05-21T07:58:25;95192.16;;;18.84;51.33
78894;BME280;68282;42.698;23.350;2023-05-21T08:00:51;95194.53;;;18.91;48.44
78894;BME280;68282;42.698;23.350;2023-05-21T08:03:17;95195.31;;;18.96;46.07
78894;BME280;68282;42.698;23.350;2023-05-21T08:05:43;95189.22;;;18.99;45.36
78894;BME280;68282;42.698;23.350;2023-05-21T08:08:16;95195.50;;;19.05;44.93
78894;BME280;68282;42.698;23.350;2023-05-21T08:10:42;95191.78;;;19.15;45.01
78894;BME280;68282;42.698;23.350;2023-05-21T08:13:07;95196.09;;;19.21;44.49
78894;BME280;68282;42.698;23.350;2023-05-21T08:15:33;95188.06;;;19.25;44.69
78894;BME280;68282;42.698;23.350;2023-05-21T08:17:58;95196.81;;;19.32;44.79
78894;BME280;68282;42.698;23.350;2023-05-21T08:20:24;95193.69;;;19.39;44.05
78894;BME280;68282;42.698;23.350;2023-05-21T08:22:50;95193.16;;;19.37;42.88
78894;BME280;68282;42.698;23.350;2023-05-21T08:25:18;95198.72;;;19.51;41.46
78894;BME280;68282;42.698;23.350;2023-05-21T08:27:47;95191.28;;;19.51;43.04
78894;BME280;68282;42.698;23.350;2023-05-21T08:30:12;95190.38;;;19.56;41.34
78894;BME280;68282;42.698;23.350;2023-05-21T08:32:38;95183.88;;;19.66;42.95
78894;BME280;68282;42.698;23.350;2023-05-21T08:35:04;95195.38;;;19.73;43.08
78894;BME280;68282;42.698;23.350;2023-05-21T08:37:30;95200.47;;;19.80;41.63
78894;BME280;68282;42.698;23.350;2023-05-21T08:39:56;95194.47;;;19.77;41.34
78894;BME280;68282;42.698;23.350;2023-05-21T08:44:57;95200.47;;;19.80;39.34
78894;BME280;68282;42.698;23.350;2023-05-21T08:47:25;95198.78;;;19.84;40.05
78894;BME280;68282;42.698;23.350;2023-05-21T08:49:54;95193.50;;;19.87;40.61
78894;BME280;68282;42.698;23.350;2023-05-21T08:52:20;95197.31;;;19.91;39.50
78894;BME280;68282;42.698;23.350;2023-05-21T08:54:47;95192.59;;;19.92;40.20
78894;BME280;68282;42.698;23.350;2023-05-21T08:57:16;95189.22;;;19.95;40.38
78894;BME280;68282;42.698;23.350;2023-05-21T08:59:43;95182.28;;;19.98;40.58
78894;BME280;68282;42.698;23.350;2023-05-21T09:02:12;95190.56;;;19.98;40.68
78894;BME280;68282;42.698;23.350;2023-05-21T09:04:41;95194.38;;;20.02;40.72
78894;BME280;68282;42.698;23.350;2023-05-21T09:07:09;95188.47;;;20.08;40.39
78894;BME280;68282;42.698;23.350;2023-05-21T09:09:41;95186.94;;;20.16;40.12
78894;BME280;68282;42.698;23.350;2023-05-21T09:12:08;95190.00;;;20.29;41.20
78894;BME280;68282;42.698;23.350;2023-05-21T09:14:36;95190.53;;;20.31;39.94
78894;BME280;68282;42.698;23.350;2023-05-21T09:17:02;95182.88;;;20.28;41.16
78894;BME280;68282;42.698;23.350;2023-05-21T09:19:27;95192.91;;;20.37;40.82
78894;BME280;68282;42.698;23.350;2023-05-21T09:22:00;95191.31;;;20.50;40.29
78894;BME280;68282;42.698;23.350;2023-05-21T09:24:29;95177.91;;;20.58;40.28
78894;BME280;68282;42.698;23.350;2023-05-21T09:26:59;95199.47;;;20.69;39.65
78894;BME280;68282;42.698;23.350;2023-05-21T09:29:25;95189.69;;;20.77;39.36
78894;BME280;68282;42.698;23.350;2023-05-21T09:31:50;95177.50;;;20.64;37.88
78894;BME280;68282;42.698;23.350;2023-05-21T09:34:16;95195.19;;;20.63;37.49
78894;BME280;68282;42.698;23.350;2023-05-21T09:36:42;95182.19;;;20.64;37.96
78894;BME280;68282;42.698;23.350;2023-05-21T09:39:11;95193.03;;;20.60;36.54
78894;BME280;68282;42.698;23.350;2023-05-21T09:41:41;95181.19;;;20.60;37.39
78894;BME280;68282;42.698;23.350;2023-05-21T09:44:06;95179.53;;;20.59;36.40
78894;BME280;68282;42.698;23.350;2023-05-21T09:46:41;95179.72;;;20.62;37.29
78894;BME280;68282;42.698;23.350;2023-05-21T09:49:22;95169.03;;;20.75;36.60
78894;BME280;68282;42.698;23.350;2023-05-21T09:51:48;95174.53;;;20.89;35.95
78894;BME280;68282;42.698;23.350;2023-05-21T09:54:14;95169.63;;;20.99;37.28
78894;BME280;68282;42.698;23.350;2023-05-21T09:56:39;95168.97;;;21.03;35.71
78894;BME280;68282;42.698;23.350;2023-05-21T09:59:06;95166.94;;;21.08;36.88
78894;BME280;68282;42.698;23.350;2023-05-21T10:01:32;95158.81;;;21.12;35.68
78894;BME280;68282;42.698;23.350;2023-05-21T10:04:05;95162.72;;;21.25;33.68
78894;BME280;68282;42.698;23.350;2023-05-21T10:06:34;95156.44;;;21.33;34.84
78894;BME280;68282;42.698;23.350;2023-05-21T10:09:05;95157.66;;;21.41;33.95
78894;BME280;68282;42.698;23.350;2023-05-21T10:11:32;95155.06;;;21.44;34.74
78894;BME280;68282;42.698;23.350;2023-05-21T10:14:14;95159.66;;;21.49;34.62
78894;BME280;68282;42.698;23.350;2023-05-21T10:16:41;95151.88;;;21.51;34.77
78894;BME280;68282;42.698;23.350;2023-05-21T10:19:08;95156.19;;;21.43;35.35
78894;BME280;68282;42.698;23.350;2023-05-21T10:21:37;95144.84;;;21.31;35.44
78894;BME280;68282;42.698;23.350;2023-05-21T10:24:05;95152.59;;;21.20;35.66
78894;BME280;68282;42.698;23.350;2023-05-21T10:26:35;95151.38;;;21.12;35.40
78894;BME280;68282;42.698;23.350;2023-05-21T10:29:01;95154.66;;;21.00;34.22
78894;BME280;68282;42.698;23.350;2023-05-21T10:31:27;95144.50;;;20.96;36.18
78894;BME280;68282;42.698;23.350;2023-05-21T10:33:53;95154.34;;;21.02;35.77
78894;BME280;68282;42.698;23.350;2023-05-21T10:36:19;95146.06;;;21.02;37.80
78894;BME280;68282;42.698;23.350;2023-05-21T10:38:46;95144.63;;;21.05;35.83
78894;BME280;68282;42.698;23.350;2023-05-21T10:41:12;95139.09;;;21.05;36.08
78894;BME280;68282;42.698;23.350;2023-05-21T10:52:49;95139.59;;;20.65;37.84
78894;BME280;68282;42.698;23.350;2023-05-21T11:00:51;95139.94;;;20.77;37.88
78894;BME280;68282;42.698;23.350;2023-05-21T11:03:18;95148.84;;;20.74;40.32
78894;BME280;68282;42.698;23.350;2023-05-21T11:05:53;95151.78;;;20.64;39.57
78894;BME280;68282;42.698;23.350;2023-05-21T11:08:26;95130.91;;;20.58;38.59
78894;BME280;68282;42.698;23.350;2023-05-21T11:10:53;95137.38;;;20.53;37.99
78894;BME280;68282;42.698;23.350;2023-05-21T11:13:19;95132.66;;;20.53;38.57
78894;BME280;68282;42.698;23.350;2023-05-21T11:21:17;95128.75;;;20.54;39.65
78894;BME280;68282;42.698;23.350;2023-05-21T11:23:55;95132.16;;;20.79;39.93
78894;BME280;68282;42.698;23.350;2023-05-21T11:26:25;95120.06;;;20.89;38.80
78894;BME280;68282;42.698;23.350;2023-05-21T11:29:17;95112.81;;;20.79;38.51
78894;BME280;68282;42.698;23.350;2023-05-21T11:31:49;95124.81;;;20.75;39.63
78894;BME280;68282;42.698;23.350;2023-05-21T11:34:23;95112.69;;;20.70;40.62
78894;BME280;68282;42.698;23.350;2023-05-21T11:39:41;95114.13;;;20.68;38.70
78894;BME280;68282;42.698;23.350;2023-05-21T11:42:07;95123.75;;;20.57;39.31
78894;BME280;68282;42.698;23.350;2023-05-21T11:44:46;95121.91;;;20.52;40.54
78894;BME280;68282;42.698;23.350;2023-05-21T11:47:13;95114.75;;;20.51;40.56
78894;BME280;68282;42.698;23.350;2023-05-21T11:49:39;95112.00;;;20.51;40.19
78894;BME280;68282;42.698;23.350;2023-05-21T11:52:06;95103.59;;;20.42;39.78
78894;BME280;68282;42.698;23.350;2023-05-21T11:54:38;95105.34;;;20.38;40.93
78894;BME280;68282;42.698;23.350;2023-05-21T11:57:08;95101.56;;;20.34;40.83
78894;BME280;68282;42.698;23.350;2023-05-21T11:59:34;95109.84;;;20.34;41.49
78894;BME280;68282;42.698;23.350;2023-05-21T12:02:02;95118.72;;;20.31;41.58
78894;BME280;68282;42.698;23.350;2023-05-21T12:04:32;95118.22;;;20.29;42.40
78894;BME280;68282;42.698;23.350;2023-05-21T12:07:03;95120.25;;;20.23;42.23
78894;BME280;68282;42.698;23.350;2023-05-21T12:09:29;95115.03;;;20.21;42.81
78894;BME280;68282;42.698;23.350;2023-05-21T12:11:54;95104.59;;;20.18;43.24
78894;BME280;68282;42.698;23.350;2023-05-21T12:14:23;95106.97;;;20.11;41.91
78894;BME280;68282;42.698;23.350;2023-05-21T12:16:48;95111.44;;;20.07;42.05
78894;BME280;68282;42.698;23.350;2023-05-21T12:19:16;95100.41;;;20.07;42.64
78894;BME280;68282;42.698;23.350;2023-05-21T12:21:42;95093.75;;;20.08;43.23
78894;BME280;68282;42.698;23.350;2023-05-21T12:24:11;95101.84;;;20.04;43.10
78894;BME280;68282;42.698;23.350;2023-05-21T12:26:39;95102.88;;;20.08;43.61
78894;BME280;68282;42.698;23.350;2023-05-21T12:29:06;95104.19;;;20.11;43.72
78894;BME280;68282;42.698;23.350;2023-05-21T12:31:32;95095.84;;;20.16;43.39
78894;BME280;68282;42.698;23.350;2023-05-21T12:33:57;95095.84;;;20.16;43.69
78894;BME280;68282;42.698;23.350;2023-05-21T12:36:28;95099.72;;;20.15;43.67
78894;BME280;68282;42.698;23.350;2023-05-21T12:38:54;95091.44;;;20.15;43.37
78894;BME280;68282;42.698;23.350;2023-05-21T12:41:21;95096.63;;;20.17;43.57
78894;BME280;68282;42.698;23.350;2023-05-21T12:43:47;95080.28;;;20.20;42.94
78894;BME280;68282;42.698;23.350;2023-05-21T12:46:13;95082.22;;;20.20;43.46
78894;BME280;68282;42.698;23.350;2023-05-21T12:49:07;95090.00;;;20.18;43.69
78894;BME280;68282;42.698;23.350;2023-05-21T12:51:37;95091.63;;;20.19;43.96
78894;BME280;68282;42.698;23.350;2023-05-21T12:54:10;95088.16;;;20.13;43.89
78894;BME280;68282;42.698;23.350;2023-05-21T12:56:45;95092.03;;;20.12;44.49
78894;BME280;68282;42.698;23.350;2023-05-21T12:59:13;95088.16;;;20.13;45.07
78894;BME280;68282;42.698;23.350;2023-05-21T13:01:41;95093.66;;;20.13;45.91
78894;BME280;68282;42.698;23.350;2023-05-21T13:04:11;95083.22;;;20.10;46.07
78894;BME280;68282;42.698;23.350;2023-05-21T13:06:43;95091.22;;;20.12;47.10
78894;BME280;68282;42.698;23.350;2023-05-21T13:09:08;95081.06;;;20.07;47.96
78894;BME280;68282;42.698;23.350;2023-05-21T13:11:33;95089.34;;;20.07;48.89
78894;BME280;68282;42.698;23.350;2023-05-21T13:13:59;95084.47;;;20.04;48.70
78894;BME280;68282;42.698;23.350;2023-05-21T13:16:24;95080.88;;;20.03;48.95